createdAt,value
2022-12-18T00:00:05.620Z,-7.8
2022-12-18T00:01:06.759Z,-7.8
2022-12-18T00:02:07.943Z,-7.8
2022-12-18T00:03:09.603Z,-7.8
2022-12-18T00:04:11.797Z,-7.8
2022-12-18T00:05:13.465Z,-7.8
2022-12-18T00:06:14.364Z,-7.8
2022-12-18T00:07:15.791Z,-7.8
2022-12-18T00:08:16.918Z,-7.8
2022-12-18T00:09:18.340Z,-7.8
2022-12-18T00:10:19.508Z,-7.9
2022-12-18T00:11:20.649Z,-7.9
2022-12-18T00:12:21.830Z,-7.9
2022-12-18T00:13:23.268Z,-7.9
2022-12-18T00:14:25.215Z,-7.9
2022-12-18T00:15:26.619Z,-7.9
2022-12-18T00:16:27.987Z,-7.9
2022-12-18T00:17:29.240Z,-8
2022-12-18T00:18:30.441Z,-8
2022-12-18T00:19:31.873Z,-8
2022-12-18T00:20:33.033Z,-8
2022-12-18T00:21:33.932Z,-8
2022-12-18T00:22:35.343Z,-8
2022-12-18T00:23:36.659Z,-8
2022-12-18T00:24:38.791Z,-8
2022-12-18T00:25:40.204Z,-8
2022-12-18T00:26:41.389Z,-8
2022-12-18T00:27:42.795Z,-8
2022-12-18T00:28:43.716Z,-8
2022-12-18T00:29:44.878Z,-8
2022-12-18T00:30:46.003Z,-8
2022-12-18T00:31:47.489Z,-8
2022-12-18T00:32:49.103Z,-8
2022-12-18T00:33:51.227Z,-8
2022-12-18T00:34:56.454Z,-8
2022-12-18T00:35:57.877Z,-8
2022-12-18T00:36:58.729Z,-8
2022-12-18T00:37:59.866Z,-8
2022-12-18T00:39:01.294Z,-8
2022-12-18T00:40:02.418Z,-8
2022-12-18T00:41:03.317Z,-8
2022-12-18T00:42:04.732Z,-8
2022-12-18T00:43:06.158Z,-8
2022-12-18T00:44:07.607Z,-8
2022-12-18T00:45:12.502Z,-8
2022-12-18T00:46:14.506Z,-8
2022-12-18T00:47:15.816Z,-8
2022-12-18T00:48:16.952Z,-8
2022-12-18T00:49:18.380Z,-8
2022-12-18T00:50:21.478Z,-8
2022-12-18T00:51:22.894Z,-8
2022-12-18T00:52:23.749Z,-8
2022-12-18T00:53:24.889Z,-8
2022-12-18T00:54:26.312Z,-8
2022-12-18T00:55:27.199Z,-8.1
2022-12-18T00:56:28.339Z,-8.1
2022-12-18T00:57:29.623Z,-8.1
2022-12-18T00:58:30.796Z,-8.1
2022-12-18T00:59:32.387Z,-8.1
2022-12-18T01:00:33.842Z,-8.1
2022-12-18T01:01:35.297Z,-8.1
2022-12-18T01:02:36.488Z,-8.1
2022-12-18T01:03:38.329Z,-8.1
2022-12-18T01:04:42.099Z,-8.1
2022-12-18T01:05:43.214Z,-8.1
2022-12-18T01:06:44.365Z,-8.1
2022-12-18T01:07:45.870Z,-8.1
2022-12-18T01:08:46.763Z,-8.1
2022-12-18T01:09:48.051Z,-8.1
2022-12-18T01:10:49.437Z,-8.2
2022-12-18T01:11:50.578Z,-8.2
2022-12-18T01:12:51.435Z,-8.2
2022-12-18T01:13:52.851Z,-8.2
2022-12-18T01:14:54.018Z,-8.2
2022-12-18T01:15:55.405Z,-8.2
2022-12-18T01:16:56.822Z,-8.3
2022-12-18T01:17:57.959Z,-8.3
2022-12-18T01:18:59.097Z,-8.3
2022-12-18T01:20:00.244Z,-8.3
2022-12-18T01:21:01.375Z,-8.3
2022-12-18T01:22:02.794Z,-8.3
2022-12-18T01:23:04.207Z,-8.3
2022-12-18T01:24:05.343Z,-8.3
2022-12-18T01:25:06.768Z,-8.3
2022-12-18T01:26:08.178Z,-8.3
2022-12-18T01:27:09.316Z,-8.3
2022-12-18T01:28:10.730Z,-8.3
2022-12-18T01:29:11.867Z,-8.3
2022-12-18T01:30:13.296Z,-8.3
2022-12-18T01:31:14.480Z,-8.3
2022-12-18T01:32:15.972Z,-8.3
2022-12-18T01:33:17.107Z,-8.3
2022-12-18T01:34:18.278Z,-8.3
2022-12-18T01:35:19.420Z,-8.3
2022-12-18T01:36:20.551Z,-8.3
2022-12-18T01:37:21.456Z,-8.3
2022-12-18T01:38:22.608Z,-8.3
2022-12-18T01:39:23.746Z,-8.3
2022-12-18T01:40:25.164Z,-8.3
2022-12-18T01:41:26.303Z,-8.3
2022-12-18T01:42:27.720Z,-8.3
2022-12-18T01:43:28.610Z,-8.3
2022-12-18T01:44:30.046Z,-8.3
2022-12-18T01:45:30.934Z,-8.4
2022-12-18T01:46:32.419Z,-8.4
2022-12-18T01:47:33.481Z,-8.4
2022-12-18T01:48:34.621Z,-8.4
2022-12-18T01:49:36.068Z,-8.4
2022-12-18T01:50:37.455Z,-8.4
2022-12-18T01:51:38.593Z,-8.4
2022-12-18T01:52:39.497Z,-8.4
2022-12-18T01:53:40.935Z,-8.4
2022-12-18T01:54:43.755Z,-8.4
2022-12-18T01:55:45.146Z,-8.5
2022-12-18T01:56:46.569Z,-8.5
2022-12-18T01:57:47.982Z,-8.5
2022-12-18T01:58:49.398Z,-8.5
2022-12-18T01:59:50.911Z,-8.5
2022-12-18T02:00:51.749Z,-8.5
2022-12-18T02:01:53.237Z,-8.5
2022-12-18T02:02:54.692Z,-8.6
2022-12-18T02:03:56.597Z,-8.6
2022-12-18T02:04:58.102Z,-8.5
2022-12-18T02:05:59.314Z,-8.6
2022-12-18T02:07:00.171Z,-8.6
2022-12-18T02:08:01.600Z,-8.6
2022-12-18T02:09:02.449Z,-8.6
2022-12-18T02:10:03.605Z,-8.5
2022-12-18T02:11:05.108Z,-8.5
2022-12-18T02:12:06.116Z,-8.5
2022-12-18T02:13:07.410Z,-8.5
2022-12-18T02:14:09.159Z,-8.5
2022-12-18T02:15:10.586Z,-8.5
2022-12-18T02:16:11.539Z,-8.5
2022-12-18T02:17:12.988Z,-8.5
2022-12-18T02:18:14.413Z,-8.5
2022-12-18T02:19:15.819Z,-8.5
2022-12-18T02:20:17.677Z,-8.5
2022-12-18T02:21:19.044Z,-8.5
2022-12-18T02:22:20.187Z,-8.5
2022-12-18T02:23:21.597Z,-8.5
2022-12-18T02:24:22.460Z,-8.5
2022-12-18T02:25:23.645Z,-8.5
2022-12-18T02:26:25.052Z,-8.6
2022-12-18T02:27:26.466Z,-8.5
2022-12-18T02:28:27.773Z,-8.6
2022-12-18T02:29:29.176Z,-8.6
2022-12-18T02:30:30.109Z,-8.6
2022-12-18T02:31:31.279Z,-8.6
2022-12-18T02:32:32.418Z,-8.6
2022-12-18T02:33:33.565Z,-8.6
2022-12-18T02:34:34.690Z,-8.6
2022-12-18T02:35:36.132Z,-8.6
2022-12-18T02:36:37.524Z,-8.6
2022-12-18T02:37:38.939Z,-8.6
2022-12-18T02:38:39.797Z,-8.6
2022-12-18T02:39:40.975Z,-8.6
2022-12-18T02:40:42.143Z,-8.6
2022-12-18T02:41:43.549Z,-8.6
2022-12-18T02:42:44.712Z,-8.6
2022-12-18T02:43:46.341Z,-8.6
2022-12-18T02:44:48.079Z,-8.7
2022-12-18T02:45:49.366Z,-8.7
2022-12-18T02:46:50.965Z,-8.7
2022-12-18T02:47:52.099Z,-8.7
2022-12-18T02:48:53.515Z,-8.7
2022-12-18T02:49:54.406Z,-8.7
2022-12-18T02:50:55.842Z,-8.7
2022-12-18T02:51:57.238Z,-8.7
2022-12-18T02:52:58.653Z,-8.7
2022-12-18T02:54:00.089Z,-8.7
2022-12-18T02:55:01.211Z,-8.7
2022-12-18T02:56:02.096Z,-8.7
2022-12-18T02:57:03.487Z,-8.7
2022-12-18T02:58:04.398Z,-8.7
2022-12-18T02:59:05.648Z,-8.7
2022-12-18T03:00:12.703Z,-8.7
2022-12-18T03:01:14.043Z,-8.7
2022-12-18T03:02:15.961Z,-8.7
2022-12-18T03:03:18.057Z,-8.7
2022-12-18T03:04:21.084Z,-8.7
2022-12-18T03:05:21.974Z,-8.7
2022-12-18T03:06:23.422Z,-8.7
2022-12-18T03:07:24.811Z,-8.7
2022-12-18T03:08:25.964Z,-8.7
2022-12-18T03:09:27.134Z,-8.7
2022-12-18T03:10:28.751Z,-8.7
2022-12-18T03:11:30.175Z,-8.7
2022-12-18T03:12:31.307Z,-8.7
2022-12-18T03:13:32.723Z,-8.8
2022-12-18T03:14:33.459Z,-8.8
2022-12-18T03:15:34.690Z,-8.8
2022-12-18T03:16:36.035Z,-8.8
2022-12-18T03:17:36.933Z,-8.8
2022-12-18T03:18:37.834Z,-8.8
2022-12-18T03:19:38.971Z,-8.8
2022-12-18T03:20:40.391Z,-8.8
2022-12-18T03:21:41.537Z,-8.8
2022-12-18T03:22:42.944Z,-8.8
2022-12-18T03:23:44.806Z,-8.9
2022-12-18T03:24:46.507Z,-8.9
2022-12-18T03:25:47.922Z,-8.9
2022-12-18T03:26:49.349Z,-8.9
2022-12-18T03:27:50.751Z,-8.9
2022-12-18T03:28:52.490Z,-8.9
2022-12-18T03:29:54.028Z,-8.9
2022-12-18T03:30:55.178Z,-8.9
2022-12-18T03:31:56.403Z,-8.9
2022-12-18T03:33:00.344Z,-8.9
2022-12-18T03:34:01.146Z,-8.9
2022-12-18T03:35:02.553Z,-8.9
2022-12-18T03:36:03.969Z,-8.9
2022-12-18T03:37:05.405Z,-8.9
2022-12-18T03:38:06.524Z,-8.9
2022-12-18T03:39:07.664Z,-8.9
2022-12-18T03:40:08.804Z,-8.9
2022-12-18T03:41:10.928Z,-8.9
2022-12-18T03:42:12.096Z,-8.9
2022-12-18T03:43:13.258Z,-8.9
2022-12-18T03:44:14.401Z,-9
2022-12-18T03:45:15.658Z,-9
2022-12-18T03:46:16.916Z,-9
2022-12-18T03:47:18.320Z,-9
2022-12-18T03:48:19.451Z,-9
2022-12-18T03:49:20.866Z,-9
2022-12-18T03:50:21.724Z,-9.1
2022-12-18T03:51:22.903Z,-9.1
2022-12-18T03:52:24.337Z,-9.1
2022-12-18T03:53:25.463Z,-9.1
2022-12-18T03:54:26.082Z,-9.1
2022-12-18T03:55:27.218Z,-9.1
2022-12-18T03:56:28.640Z,-9.2
2022-12-18T03:57:30.055Z,-9.2
2022-12-18T03:58:30.663Z,-9.2
2022-12-18T03:59:31.840Z,-9.2
2022-12-18T04:00:33.380Z,-9.3
2022-12-18T04:01:35.077Z,-9.3
2022-12-18T04:02:37.370Z,-9.3
2022-12-18T04:03:39.249Z,-9.4
2022-12-18T04:04:41.990Z,-9.4
2022-12-18T04:05:43.144Z,-9.4
2022-12-18T04:06:43.744Z,-9.4
2022-12-18T04:07:44.656Z,-9.4
2022-12-18T04:08:45.849Z,-9.4
2022-12-18T04:09:46.752Z,-9.4
2022-12-18T04:10:48.147Z,-9.4
2022-12-18T04:11:49.287Z,-9.4
2022-12-18T04:12:50.433Z,-9.4
2022-12-18T04:13:51.884Z,-9.3
2022-12-18T04:14:53.066Z,-9.4
2022-12-18T04:15:54.644Z,-9.4
2022-12-18T04:16:56.000Z,-9.3
2022-12-18T04:17:57.293Z,-9.3
2022-12-18T04:18:58.698Z,-9.4
2022-12-18T04:20:00.081Z,-9.4
2022-12-18T04:21:01.200Z,-9.4
2022-12-18T04:22:02.332Z,-9.3
2022-12-18T04:23:03.564Z,-9.4
2022-12-18T04:24:04.928Z,-9.4
2022-12-18T04:25:06.073Z,-9.4
2022-12-18T04:26:07.500Z,-9.4
2022-12-18T04:27:08.650Z,-9.4
2022-12-18T04:28:09.832Z,-9.4
2022-12-18T04:29:11.240Z,-9.4
2022-12-18T04:30:12.375Z,-9.4
2022-12-18T04:31:14.037Z,-9.4
2022-12-18T04:32:15.477Z,-9.4
2022-12-18T04:33:17.081Z,-9.5
2022-12-18T04:34:18.201Z,-9.5
2022-12-18T04:35:19.616Z,-9.5
2022-12-18T04:36:20.477Z,-9.5
2022-12-18T04:37:21.633Z,-9.5
2022-12-18T04:38:22.827Z,-9.5
2022-12-18T04:39:24.233Z,-9.5
2022-12-18T04:40:26.896Z,-9.5
2022-12-18T04:41:27.797Z,-9.6
2022-12-18T04:42:28.948Z,-9.6
2022-12-18T04:43:30.094Z,-9.6
2022-12-18T04:44:31.210Z,-9.6
2022-12-18T04:45:32.359Z,-9.6
2022-12-18T04:46:33.953Z,-9.6
2022-12-18T04:47:35.449Z,-9.6
2022-12-18T04:48:36.512Z,-9.6
2022-12-18T04:49:37.915Z,-9.6
2022-12-18T04:50:38.811Z,-9.6
2022-12-18T04:51:41.321Z,-9.6
2022-12-18T04:52:42.725Z,-9.6
2022-12-18T04:53:44.151Z,-9.6
2022-12-18T04:54:45.002Z,-9.6
2022-12-18T04:55:46.141Z,-9.6
2022-12-18T04:56:46.755Z,-9.6
2022-12-18T04:57:47.926Z,-9.6
2022-12-18T04:58:49.123Z,-9.6
2022-12-18T04:59:49.959Z,-9.6
2022-12-18T05:00:50.873Z,-9.6
2022-12-18T05:01:52.517Z,-9.6
2022-12-18T05:02:54.401Z,-9.6
2022-12-18T05:03:56.241Z,-9.6
2022-12-18T05:04:57.384Z,-9.6
2022-12-18T05:05:58.558Z,-9.6
2022-12-18T05:06:59.976Z,-9.6
2022-12-18T05:08:01.592Z,-9.6
2022-12-18T05:09:03.768Z,-9.6
2022-12-18T05:10:04.890Z,-9.6
2022-12-18T05:11:07.433Z,-9.7
2022-12-18T05:12:08.289Z,-9.6
2022-12-18T05:13:09.705Z,-9.6
2022-12-18T05:14:10.865Z,-9.6
2022-12-18T05:15:12.258Z,-9.7
2022-12-18T05:16:13.449Z,-9.7
2022-12-18T05:17:14.896Z,-9.7
2022-12-18T05:18:16.194Z,-9.7
2022-12-18T05:19:17.795Z,-9.7
2022-12-18T05:20:18.923Z,-9.7
2022-12-18T05:21:20.094Z,-9.7
2022-12-18T05:22:21.513Z,-9.7
2022-12-18T05:23:23.200Z,-9.7
2022-12-18T05:24:25.024Z,-9.7
2022-12-18T05:25:26.115Z,-9.7
2022-12-18T05:26:27.257Z,-9.7
2022-12-18T05:27:28.670Z,-9.7
2022-12-18T05:28:30.088Z,-9.7
2022-12-18T05:29:31.238Z,-9.7
2022-12-18T05:30:32.367Z,-9.7
2022-12-18T05:31:39.005Z,-9.7
2022-12-18T05:32:42.844Z,-9.7
2022-12-18T05:33:44.402Z,-9.6
2022-12-18T05:34:46.065Z,-9.6
2022-12-18T05:35:47.188Z,-9.6
2022-12-18T05:36:48.327Z,-9.6
2022-12-18T05:37:49.185Z,-9.6
2022-12-18T05:38:50.319Z,-9.6
2022-12-18T05:39:51.227Z,-9.6
2022-12-18T05:40:52.631Z,-9.6
2022-12-18T05:41:53.761Z,-9.6
2022-12-18T05:42:54.933Z,-9.5
2022-12-18T05:43:56.351Z,-9.5
2022-12-18T05:44:57.542Z,-9.5
2022-12-18T05:45:58.941Z,-9.5
2022-12-18T05:47:00.179Z,-9.5
2022-12-18T05:48:01.476Z,-9.5
2022-12-18T05:49:08.843Z,-9.5
2022-12-18T05:50:10.299Z,-9.5
2022-12-18T05:51:11.698Z,-9.5
2022-12-18T05:52:13.114Z,-9.4
2022-12-18T05:53:14.289Z,-9.4
2022-12-18T05:54:15.470Z,-9.4
2022-12-18T05:55:16.658Z,-9.4
2022-12-18T05:56:17.785Z,-9.4
2022-12-18T05:57:19.200Z,-9.4
2022-12-18T05:58:20.095Z,-9.3
2022-12-18T05:59:21.713Z,-9.3
2022-12-18T06:00:22.851Z,-9.3
2022-12-18T06:01:24.053Z,-9.3
2022-12-18T06:02:25.461Z,-9.3
2022-12-18T06:03:32.281Z,-9.3
2022-12-18T06:04:35.505Z,-9.3
2022-12-18T06:05:36.922Z,-9.3
2022-12-18T06:06:38.324Z,-9.3
2022-12-18T06:07:40.216Z,-9.3
2022-12-18T06:08:46.132Z,-9.3
2022-12-18T06:09:48.038Z,-9.3
2022-12-18T06:10:49.462Z,-9.3
2022-12-18T06:11:50.876Z,-9.4
2022-12-18T06:12:52.052Z,-9.4
2022-12-18T06:13:57.777Z,-9.4
2022-12-18T06:15:01.703Z,-9.3
2022-12-18T06:16:02.986Z,-9.3
2022-12-18T06:17:04.030Z,-9.3
2022-12-18T06:18:05.447Z,-9.3
2022-12-18T06:19:06.984Z,-9.3
2022-12-18T06:20:08.155Z,-9.3
2022-12-18T06:21:09.701Z,-9.3
2022-12-18T06:22:10.892Z,-9.2
2022-12-18T06:23:12.021Z,-9.2
2022-12-18T06:24:12.909Z,-9.2
2022-12-18T06:25:13.767Z,-9.2
2022-12-18T06:26:15.261Z,-9.2
2022-12-18T06:27:16.387Z,-9.2
2022-12-18T06:28:17.867Z,-9.2
2022-12-18T06:29:19.280Z,-9.2
2022-12-18T06:30:20.695Z,-9.2
2022-12-18T06:31:22.166Z,-9.2
2022-12-18T06:32:23.803Z,-9.2
2022-12-18T06:33:24.422Z,-9.2
2022-12-18T06:34:25.965Z,-9.2
2022-12-18T06:35:27.001Z,-9.2
2022-12-18T06:36:28.538Z,-9.2
2022-12-18T06:37:29.745Z,-9.2
2022-12-18T06:38:31.159Z,-9.2
2022-12-18T06:39:32.018Z,-9.2
2022-12-18T06:40:32.889Z,-9.2
2022-12-18T06:41:34.297Z,-9.2
2022-12-18T06:42:35.434Z,-9.2
2022-12-18T06:43:37.053Z,-9.2
2022-12-18T06:44:39.845Z,-9.2
2022-12-18T06:45:41.072Z,-9.2
2022-12-18T06:46:42.834Z,-9.2
2022-12-18T06:47:44.344Z,-9.2
2022-12-18T06:48:45.765Z,-9.2
2022-12-18T06:49:46.781Z,-9.3
2022-12-18T06:50:47.950Z,-9.3
2022-12-18T06:51:49.316Z,-9.3
2022-12-18T06:52:50.462Z,-9.3
2022-12-18T06:53:51.658Z,-9.3
2022-12-18T06:54:52.794Z,-9.3
2022-12-18T06:55:54.223Z,-9.3
2022-12-18T06:56:55.112Z,-9.3
2022-12-18T06:57:56.281Z,-9.3
2022-12-18T06:58:57.696Z,-9.3
2022-12-18T06:59:58.846Z,-9.3
2022-12-18T07:01:00.040Z,-9.3
2022-12-18T07:02:01.464Z,-9.3
2022-12-18T07:03:03.191Z,-9.3
2022-12-18T07:04:04.766Z,-9.3
2022-12-18T07:05:10.419Z,-9.3
2022-12-18T07:06:12.310Z,-9.3
2022-12-18T07:07:14.001Z,-9.3
2022-12-18T07:08:14.898Z,-9.3
2022-12-18T07:09:16.311Z,-9.3
2022-12-18T07:10:17.228Z,-9.3
2022-12-18T07:11:18.661Z,-9.3
2022-12-18T07:12:20.052Z,-9.3
2022-12-18T07:13:21.475Z,-9.2
2022-12-18T07:14:22.891Z,-9.2
2022-12-18T07:15:24.319Z,-9.2
2022-12-18T07:16:26.160Z,-9.2
2022-12-18T07:17:27.719Z,-9.2
2022-12-18T07:18:29.040Z,-9.3
2022-12-18T07:19:30.180Z,-9.3
2022-12-18T07:20:33.408Z,-9.3
2022-12-18T07:21:34.367Z,-9.3
2022-12-18T07:22:36.122Z,-9.3
2022-12-18T07:23:37.560Z,-9.3
2022-12-18T07:24:40.032Z,-9.3
2022-12-18T07:25:41.445Z,-9.3
2022-12-18T07:26:42.867Z,-9.3
2022-12-18T07:27:44.041Z,-9.3
2022-12-18T07:28:45.893Z,-9.3
2022-12-18T07:29:47.066Z,-9.3
2022-12-18T07:30:48.245Z,-9.3
2022-12-18T07:31:49.700Z,-9.3
2022-12-18T07:32:51.193Z,-9.3
2022-12-18T07:33:52.333Z,-9.3
2022-12-18T07:34:53.519Z,-9.3
2022-12-18T07:35:55.086Z,-9.3
2022-12-18T07:36:56.481Z,-9.3
2022-12-18T07:37:58.050Z,-9.2
2022-12-18T07:38:59.192Z,-9.2
2022-12-18T07:40:00.330Z,-9.2
2022-12-18T07:41:01.764Z,-9.2
2022-12-18T07:42:02.882Z,-9.2
2022-12-18T07:43:04.020Z,-9.2
2022-12-18T07:44:05.153Z,-9.2
2022-12-18T07:45:05.769Z,-9.2
2022-12-18T07:46:06.728Z,-9.2
2022-12-18T07:47:11.893Z,-9.2
2022-12-18T07:48:13.537Z,-9.2
2022-12-18T07:49:14.655Z,-9.2
2022-12-18T07:50:16.071Z,-9.2
2022-12-18T07:51:17.628Z,-9.2
2022-12-18T07:52:24.288Z,-9.2
2022-12-18T07:53:27.654Z,-9.2
2022-12-18T07:54:28.826Z,-9.2
2022-12-18T07:55:42.173Z,-9.2
2022-12-18T07:59:02.279Z,-9.1
2022-12-18T08:00:03.459Z,-9.1
2022-12-18T08:01:04.725Z,-9.1
2022-12-18T08:02:07.853Z,-9.1
2022-12-18T08:03:09.703Z,-9
2022-12-18T08:04:12.466Z,-9
2022-12-18T08:05:13.604Z,-9
2022-12-18T08:06:15.031Z,-9
2022-12-18T08:07:16.042Z,-8.9
2022-12-18T08:08:17.213Z,-8.9
2022-12-18T08:09:18.749Z,-8.9
2022-12-18T08:10:19.888Z,-8.9
2022-12-18T08:11:21.412Z,-8.8
2022-12-18T08:12:23.051Z,-8.8
2022-12-18T08:13:24.467Z,-8.8
2022-12-18T08:14:25.891Z,-8.7
2022-12-18T08:15:27.060Z,-8.7
2022-12-18T08:16:28.027Z,-8.7
2022-12-18T08:17:29.356Z,-8.6
2022-12-18T08:18:30.495Z,-8.6
2022-12-18T08:19:31.914Z,-8.5
2022-12-18T08:20:32.776Z,-8.5
2022-12-18T08:21:34.218Z,-8.5
2022-12-18T08:22:35.726Z,-8.5
2022-12-18T08:23:40.798Z,-8.4
2022-12-18T08:24:44.965Z,-8.4
2022-12-18T08:25:46.376Z,-8.3
2022-12-18T08:27:00.940Z,-8.3
2022-12-18T08:28:30.963Z,-8.3
2022-12-18T08:29:31.857Z,-8.2
2022-12-18T08:30:33.330Z,-8.2
2022-12-18T08:31:35.859Z,-8.1
2022-12-18T08:32:37.641Z,-8.1
2022-12-18T08:33:40.607Z,-8.1
2022-12-18T08:34:44.496Z,-8
2022-12-18T08:35:46.278Z,-8
2022-12-18T08:36:47.552Z,-7.9
2022-12-18T08:37:48.818Z,-7.9
2022-12-18T08:38:49.709Z,-7.9
2022-12-18T08:39:51.742Z,-7.8
2022-12-18T08:40:53.138Z,-7.8
2022-12-18T08:41:54.555Z,-7.8
2022-12-18T08:42:55.976Z,-7.8
2022-12-18T08:43:57.387Z,-7.7
2022-12-18T08:44:58.601Z,-7.7
2022-12-18T08:45:59.766Z,-7.7
2022-12-18T08:47:01.292Z,-7.6
2022-12-18T08:48:02.431Z,-7.6
2022-12-18T08:49:03.872Z,-7.5
2022-12-18T08:50:04.776Z,-7.5
2022-12-18T08:51:05.975Z,-7.5
2022-12-18T08:52:07.786Z,-7.4
2022-12-18T08:53:09.325Z,-7.4
2022-12-18T08:54:10.474Z,-7.3
2022-12-18T08:55:12.220Z,-7.3
2022-12-18T08:56:13.097Z,-7.2
2022-12-18T08:57:14.280Z,-7.2
2022-12-18T08:58:15.404Z,-7.1
2022-12-18T08:59:19.628Z,-7.1
2022-12-18T09:00:23.806Z,-7
2022-12-18T09:01:25.403Z,-7
2022-12-18T09:02:26.912Z,-7
2022-12-18T09:03:28.697Z,-6.9
2022-12-18T09:04:30.497Z,-6.9
2022-12-18T09:05:31.644Z,-6.9
2022-12-18T09:06:32.783Z,-6.9
2022-12-18T09:07:33.909Z,-6.8
2022-12-18T09:08:35.456Z,-6.8
2022-12-18T09:09:36.586Z,-6.8
2022-12-18T09:10:43.133Z,-6.8
2022-12-18T09:11:44.660Z,-6.7
2022-12-18T09:12:45.520Z,-6.7
2022-12-18T09:13:46.381Z,-6.6
2022-12-18T09:14:47.517Z,-6.6
2022-12-18T09:15:48.686Z,-6.5
2022-12-18T09:16:50.103Z,-6.5
2022-12-18T09:17:51.593Z,-6.4
2022-12-18T09:18:52.488Z,-6.4
2022-12-18T09:19:53.347Z,-6.4
2022-12-18T09:20:55.061Z,-6.3
2022-12-18T09:21:56.201Z,-6.3
2022-12-18T09:22:57.622Z,-6.2
2022-12-18T09:23:59.162Z,-6.2
2022-12-18T09:25:00.350Z,-6.1
2022-12-18T09:26:02.093Z,-6.1
2022-12-18T09:27:03.258Z,-6
2022-12-18T09:28:04.870Z,-6
2022-12-18T09:29:05.717Z,-5.9
2022-12-18T09:30:06.631Z,-5.9
2022-12-18T09:31:08.081Z,-5.8
2022-12-18T09:32:08.987Z,-5.8
2022-12-18T09:33:09.845Z,-5.7
2022-12-18T09:34:11.630Z,-5.7
2022-12-18T09:35:13.073Z,-5.6
2022-12-18T09:36:13.936Z,-5.6
2022-12-18T09:37:14.856Z,-5.6
2022-12-18T09:38:15.476Z,-5.5
2022-12-18T09:39:17.102Z,-5.5
2022-12-18T09:40:24.617Z,-5.4
2022-12-18T09:41:26.067Z,-5.4
2022-12-18T09:42:26.942Z,-5.4
2022-12-18T09:43:28.088Z,-5.3
2022-12-18T09:44:29.526Z,-5.3
2022-12-18T09:45:31.198Z,-5.3
2022-12-18T09:46:32.684Z,-5.3
2022-12-18T09:47:33.770Z,-5.2
2022-12-18T09:48:34.958Z,-5.2
2022-12-18T09:49:36.132Z,-5.2
2022-12-18T09:50:37.548Z,-5.1
2022-12-18T09:51:38.707Z,-5.1
2022-12-18T09:52:40.100Z,-5.1
2022-12-18T09:53:41.519Z,-5.1
2022-12-18T09:54:48.633Z,-5.1
2022-12-18T09:55:49.997Z,-5
2022-12-18T09:56:51.461Z,-5
2022-12-18T09:57:52.341Z,-5
2022-12-18T09:58:53.756Z,-5
2022-12-18T09:59:54.895Z,-5
2022-12-18T10:00:56.318Z,-5
2022-12-18T10:01:57.517Z,-4.9
2022-12-18T10:02:58.911Z,-4.9
2022-12-18T10:04:00.867Z,-4.9
2022-12-18T10:05:02.270Z,-4.8
2022-12-18T10:06:03.444Z,-4.8
2022-12-18T10:07:09.056Z,-4.8
2022-12-18T10:08:10.522Z,-4.7
2022-12-18T10:09:11.413Z,-4.7
2022-12-18T10:10:12.841Z,-4.7
2022-12-18T10:11:14.091Z,-4.6
2022-12-18T10:12:15.533Z,-4.6
2022-12-18T10:13:16.125Z,-4.6
2022-12-18T10:14:17.542Z,-4.5
2022-12-18T10:15:18.958Z,-4.5
2022-12-18T10:16:20.159Z,-4.4
2022-12-18T10:17:21.713Z,-4.4
2022-12-18T10:18:22.882Z,-4.4
2022-12-18T10:19:23.743Z,-4.3
2022-12-18T10:20:24.873Z,-4.3
2022-12-18T10:21:26.292Z,-4.3
2022-12-18T10:22:27.441Z,-4.3
2022-12-18T10:23:29.947Z,-4.3
2022-12-18T10:24:31.361Z,-4.2
2022-12-18T10:25:32.927Z,-4.2
2022-12-18T10:26:34.213Z,-4.2
2022-12-18T10:27:36.027Z,-4.1
2022-12-18T10:28:37.724Z,-4.1
2022-12-18T10:29:40.211Z,-4.1
2022-12-18T10:30:41.678Z,-4.1
2022-12-18T10:31:43.117Z,-4.1
2022-12-18T10:32:44.851Z,-4.1
2022-12-18T10:33:46.269Z,-4
2022-12-18T10:34:47.683Z,-4
2022-12-18T10:35:49.096Z,-3.9
2022-12-18T10:36:50.507Z,-3.9
2022-12-18T10:37:52.232Z,-3.9
2022-12-18T10:38:53.330Z,-3.9
2022-12-18T10:39:54.746Z,-3.8
2022-12-18T10:40:56.162Z,-3.8
2022-12-18T10:41:57.705Z,-3.7
2022-12-18T10:42:59.474Z,-3.7
2022-12-18T10:44:00.629Z,-3.7
2022-12-18T10:45:02.046Z,-3.6
2022-12-18T10:46:03.558Z,-3.6
2022-12-18T10:47:08.706Z,-3.6
2022-12-18T10:48:13.167Z,-3.5
2022-12-18T10:49:14.571Z,-3.5
2022-12-18T10:50:15.985Z,-3.5
2022-12-18T10:51:16.847Z,-3.5
2022-12-18T10:52:17.706Z,-3.4
2022-12-18T10:53:19.405Z,-3.4
2022-12-18T10:54:23.090Z,-3.4
2022-12-18T10:55:24.230Z,-3.4
2022-12-18T10:56:26.572Z,-3.4
2022-12-18T10:57:27.881Z,-3.3
2022-12-18T10:58:29.680Z,-3.3
2022-12-18T10:59:30.804Z,-3.3
2022-12-18T11:00:32.219Z,-3.3
2022-12-18T11:01:33.692Z,-3.3
2022-12-18T11:02:35.724Z,-3.3
2022-12-18T11:03:37.785Z,-3.2
2022-12-18T11:04:39.229Z,-3.2
2022-12-18T11:05:40.643Z,-3.2
2022-12-18T11:06:41.817Z,-3.2
2022-12-18T11:07:43.232Z,-3.2
2022-12-18T11:08:45.923Z,-3.2
2022-12-18T11:09:47.336Z,-3.2
2022-12-18T11:10:48.291Z,-3.1
2022-12-18T11:11:49.419Z,-3
2022-12-18T11:12:50.959Z,-3
2022-12-18T11:13:52.422Z,-2.9
2022-12-18T11:14:53.333Z,-2.8
2022-12-18T11:15:54.330Z,-2.7
2022-12-18T11:17:26.071Z,-2.6
2022-12-18T11:18:28.214Z,-2.2
2022-12-18T11:19:29.141Z,-2
2022-12-18T11:20:30.337Z,-1.8
2022-12-18T11:21:31.797Z,-1.5
2022-12-18T11:22:33.223Z,-1.4
2022-12-18T11:23:34.109Z,-1
2022-12-18T11:24:38.292Z,-1
2022-12-18T11:25:39.665Z,-1
2022-12-18T11:26:41.080Z,-1
2022-12-18T11:27:42.553Z,-0.9
2022-12-18T11:28:44.217Z,-0.8
2022-12-18T11:29:46.970Z,-0.9
2022-12-18T11:30:47.885Z,-1
2022-12-18T11:31:49.342Z,-1.1
2022-12-18T11:32:51.144Z,-1.1
2022-12-18T11:34:12.239Z,-1.1
2022-12-18T11:35:31.184Z,-1.2
2022-12-18T11:36:35.576Z,-1.3
2022-12-18T11:37:36.980Z,-1.3
2022-12-18T11:38:38.461Z,-1.4
2022-12-18T11:39:41.032Z,-1.4
2022-12-18T11:40:42.444Z,-1.5
2022-12-18T11:41:43.848Z,-1.5
2022-12-18T11:42:45.017Z,-1.5
2022-12-18T11:43:46.559Z,-1.5
2022-12-18T11:44:48.098Z,-1.5
2022-12-18T11:45:49.365Z,-1.6
2022-12-18T11:46:50.359Z,-1.6
2022-12-18T11:47:53.052Z,-1.6
2022-12-18T11:48:56.150Z,-1.6
2022-12-18T11:49:57.292Z,-1.6
2022-12-18T11:50:58.445Z,-1.5
2022-12-18T11:51:59.837Z,-1.5
2022-12-18T11:53:05.528Z,-1.5
2022-12-18T11:54:07.679Z,-1.5
2022-12-18T11:55:08.865Z,-1.5
2022-12-18T11:56:09.990Z,-1.5
2022-12-18T11:57:11.403Z,-1.5
2022-12-18T11:58:12.293Z,-1.5
2022-12-18T11:59:15.007Z,-1.5
2022-12-18T12:00:16.332Z,-1.5
2022-12-18T12:01:18.093Z,-1.5
2022-12-18T12:02:19.308Z,-1.5
2022-12-18T12:03:21.252Z,-1.5
2022-12-18T12:04:23.223Z,-1.5
2022-12-18T12:05:24.641Z,-1.5
2022-12-18T12:06:26.029Z,-1.5
2022-12-18T12:07:29.630Z,-1.5
2022-12-18T12:08:30.597Z,-1.5
2022-12-18T12:09:34.161Z,-1.5
2022-12-18T12:10:35.317Z,-1.5
2022-12-18T12:11:36.437Z,-1.5
2022-12-18T12:12:37.855Z,-1.4
2022-12-18T12:13:39.327Z,-1.4
2022-12-18T12:14:44.356Z,-1.4
2022-12-18T12:15:45.502Z,-1.3
2022-12-18T12:16:47.093Z,-1.3
2022-12-18T12:17:48.563Z,-1.3
2022-12-18T12:18:49.460Z,-1.2
2022-12-18T12:19:53.278Z,-1.2
2022-12-18T12:20:53.975Z,-1.2
2022-12-18T12:21:55.341Z,-1.1
2022-12-18T12:22:56.230Z,-1.1
2022-12-18T12:23:57.433Z,-1.1
2022-12-18T12:24:58.865Z,-1.1
2022-12-18T12:26:00.280Z,-1
2022-12-18T12:27:01.402Z,-1
2022-12-18T12:28:02.295Z,-1
2022-12-18T12:29:03.708Z,-1
2022-12-18T12:30:04.969Z,-1
2022-12-18T12:31:09.043Z,-0.9
2022-12-18T12:32:10.889Z,-0.9
2022-12-18T12:33:12.052Z,-0.9
2022-12-18T12:34:13.441Z,-0.9
2022-12-18T12:35:14.579Z,-0.9
2022-12-18T12:36:15.450Z,-0.9
2022-12-18T12:39:48.450Z,-1
2022-12-18T12:40:53.687Z,-1
2022-12-18T12:42:04.453Z,-1
2022-12-18T12:43:05.924Z,-1
2022-12-18T12:44:07.591Z,-1
2022-12-18T12:45:09.773Z,-1.1
2022-12-18T12:46:12.198Z,-1.1
2022-12-18T12:47:14.496Z,-1.1
2022-12-18T12:48:18.275Z,-1.1
2022-12-18T12:49:20.000Z,-1.2
2022-12-18T12:50:23.575Z,-1.2
2022-12-18T12:51:25.531Z,-1.2
2022-12-18T12:52:27.407Z,-1.2
2022-12-18T12:53:29.613Z,-1.2
2022-12-18T12:54:30.748Z,-1.2
2022-12-18T12:55:32.652Z,-1.3
2022-12-18T12:56:34.415Z,-1.3
2022-12-18T12:57:37.009Z,-1.3
2022-12-18T12:58:38.701Z,-1.3
2022-12-18T12:59:41.487Z,-1.3
2022-12-18T13:00:42.992Z,-1.4
2022-12-18T13:01:44.968Z,-1.4
2022-12-18T13:02:47.997Z,-1.4
2022-12-18T13:03:50.504Z,-1.4
2022-12-18T13:04:53.233Z,-1.5
2022-12-18T13:05:55.565Z,-1.5
2022-12-18T13:06:57.623Z,-1.5
2022-12-18T13:07:59.044Z,-1.5
2022-12-18T13:09:00.884Z,-1.5
2022-12-18T13:10:02.355Z,-1.5
2022-12-18T13:11:03.729Z,-1.6
2022-12-18T13:12:08.811Z,-1.6
2022-12-18T13:13:10.438Z,-1.6
2022-12-18T13:14:11.876Z,-1.6
2022-12-18T13:15:13.555Z,-1.6
2022-12-18T13:16:14.802Z,-1.7
2022-12-18T13:17:16.701Z,-1.7
2022-12-18T13:18:17.880Z,-1.7
2022-12-18T13:19:19.712Z,-1.7
2022-12-18T13:20:21.212Z,-1.7
2022-12-18T13:21:22.855Z,-1.8
2022-12-18T13:22:24.861Z,-1.8
2022-12-18T13:23:26.927Z,-1.8
2022-12-18T13:24:28.048Z,-1.8
2022-12-18T13:25:28.775Z,-1.9
2022-12-18T13:26:30.663Z,-1.9
2022-12-18T13:27:32.212Z,-1.9
2022-12-18T13:28:33.954Z,-1.9
2022-12-18T13:29:35.264Z,-1.9
2022-12-18T13:30:36.457Z,-1.9
2022-12-18T13:31:37.604Z,-1.9
2022-12-18T13:32:39.358Z,-2
2022-12-18T13:34:01.901Z,-2
2022-12-18T13:35:29.656Z,-2
2022-12-18T13:36:31.509Z,-2.1
2022-12-18T13:37:33.335Z,-2.1
2022-12-18T13:38:34.901Z,-2.1
2022-12-18T13:39:36.932Z,-2.1
2022-12-18T13:40:38.413Z,-2.1
2022-12-18T13:41:39.548Z,-2.1
2022-12-18T13:42:41.160Z,-2.1
2022-12-18T13:43:45.055Z,-2.1
2022-12-18T13:44:47.990Z,-2.1
2022-12-18T13:45:49.301Z,-2.1
2022-12-18T13:46:50.841Z,-2.1
2022-12-18T13:47:52.086Z,-2.1
2022-12-18T13:48:54.533Z,-2.2
2022-12-18T13:49:56.180Z,-2.2
2022-12-18T13:50:57.839Z,-2.2
2022-12-18T13:51:59.659Z,-2.2
2022-12-18T13:53:01.073Z,-2.2